sensor_id;sensor_type;location;lat;lon;timestamp;temperature;humidity
47845;DHT22;33605;48.822;8.796;2023-10-08T00:00:24;16.00;44.60
47845;DHT22;33605;48.822;8.796;2023-10-08T00:03:25;16.00;44.60
47845;DHT22;33605;48.822;8.796;2023-10-08T00:05:55;16.00;44.70
47845;DHT22;33605;48.822;8.796;2023-10-08T00:08:21;15.90;44.70
47845;DHT22;33605;48.822;8.796;2023-10-08T00:10:47;15.90;44.80
47845;DHT22;33605;48.822;8.796;2023-10-08T00:13:14;15.90;44.90
47845;DHT22;33605;48.822;8.796;2023-10-08T00:15:42;15.80;44.90
47845;DHT22;33605;48.822;8.796;2023-10-08T00:18:26;15.90;45.00
47845;DHT22;33605;48.822;8.796;2023-10-08T00:20:53;15.80;45.00
47845;DHT22;33605;48.822;8.796;2023-10-08T00:23:22;15.70;45.00
47845;DHT22;33605;48.822;8.796;2023-10-08T00:25:47;15.70;45.00
47845;DHT22;33605;48.822;8.796;2023-10-08T00:28:15;15.70;45.10
47845;DHT22;33605;48.822;8.796;2023-10-08T00:30:43;15.70;45.20
47845;DHT22;33605;48.822;8.796;2023-10-08T00:33:09;15.70;45.30
47845;DHT22;33605;48.822;8.796;2023-10-08T00:35:38;15.70;45.50
47845;DHT22;33605;48.822;8.796;2023-10-08T00:38:04;15.60;45.40
47845;DHT22;33605;48.822;8.796;2023-10-08T00:40:43;15.60;45.60
47845;DHT22;33605;48.822;8.796;2023-10-08T00:43:33;15.60;45.70
47845;DHT22;33605;48.822;8.796;2023-10-08T00:46:03;15.60;45.70
47845;DHT22;33605;48.822;8.796;2023-10-08T00:48:30;15.60;45.60
47845;DHT22;33605;48.822;8.796;2023-10-08T00:51:04;15.60;45.60
47845;DHT22;33605;48.822;8.796;2023-10-08T00:54:02;15.60;45.60
47845;DHT22;33605;48.822;8.796;2023-10-08T00:56:47;15.60;45.80
47845;DHT22;33605;48.822;8.796;2023-10-08T00:59:21;15.60;45.70
47845;DHT22;33605;48.822;8.796;2023-10-08T01:01:49;15.60;45.70
47845;DHT22;33605;48.822;8.796;2023-10-08T01:04:25;15.60;45.80
47845;DHT22;33605;48.822;8.796;2023-10-08T01:06:59;15.60;45.80
47845;DHT22;33605;48.822;8.796;2023-10-08T01:09:27;15.60;45.80
47845;DHT22;33605;48.822;8.796;2023-10-08T01:12:14;15.60;45.80
47845;DHT22;33605;48.822;8.796;2023-10-08T01:14:55;15.60;45.80
47845;DHT22;33605;48.822;8.796;2023-10-08T01:17:24;15.60;45.70
47845;DHT22;33605;48.822;8.796;2023-10-08T01:19:51;15.60;45.70
47845;DHT22;33605;48.822;8.796;2023-10-08T01:22:34;15.60;45.70
47845;DHT22;33605;48.822;8.796;2023-10-08T01:25:03;15.60;45.60
47845;DHT22;33605;48.822;8.796;2023-10-08T01:27:30;15.60;45.70
47845;DHT22;33605;48.822;8.796;2023-10-08T01:30:00;15.60;45.70
47845;DHT22;33605;48.822;8.796;2023-10-08T01:32:40;15.60;45.70
47845;DHT22;33605;48.822;8.796;2023-10-08T01:35:06;15.60;45.60
47845;DHT22;33605;48.822;8.796;2023-10-08T01:37:54;15.60;45.60
47845;DHT22;33605;48.822;8.796;2023-10-08T01:40:22;15.60;45.70
47845;DHT22;33605;48.822;8.796;2023-10-08T01:42:51;15.60;45.70
47845;DHT22;33605;48.822;8.796;2023-10-08T01:45:17;15.50;45.60
47845;DHT22;33605;48.822;8.796;2023-10-08T01:47:44;15.50;45.60
47845;DHT22;33605;48.822;8.796;2023-10-08T01:50:10;15.50;45.60
47845;DHT22;33605;48.822;8.796;2023-10-08T01:52:47;15.50;45.60
47845;DHT22;33605;48.822;8.796;2023-10-08T01:55:13;15.50;45.70
47845;DHT22;33605;48.822;8.796;2023-10-08T01:57:43;15.50;45.70
47845;DHT22;33605;48.822;8.796;2023-10-08T02:00:09;15.40;45.70
47845;DHT22;33605;48.822;8.796;2023-10-08T02:02:36;15.40;45.70
47845;DHT22;33605;48.822;8.796;2023-10-08T02:05:02;15.30;45.80
47845;DHT22;33605;48.822;8.796;2023-10-08T02:07:29;15.30;45.80
47845;DHT22;33605;48.822;8.796;2023-10-08T02:09:56;15.30;45.90
47845;DHT22;33605;48.822;8.796;2023-10-08T02:12:23;15.20;45.80
47845;DHT22;33605;48.822;8.796;2023-10-08T02:14:49;15.20;45.90
47845;DHT22;33605;48.822;8.796;2023-10-08T02:17:14;15.20;45.90
47845;DHT22;33605;48.822;8.796;2023-10-08T02:19:40;15.20;46.00
47845;DHT22;33605;48.822;8.796;2023-10-08T02:22:07;15.20;46.00
47845;DHT22;33605;48.822;8.796;2023-10-08T02:24:35;15.20;46.10
47845;DHT22;33605;48.822;8.796;2023-10-08T02:27:01;15.10;46.00
47845;DHT22;33605;48.822;8.796;2023-10-08T02:29:30;15.10;46.10
47845;DHT22;33605;48.822;8.796;2023-10-08T02:31:58;15.10;46.20
47845;DHT22;33605;48.822;8.796;2023-10-08T02:34:25;15.10;46.20
47845;DHT22;33605;48.822;8.796;2023-10-08T02:36:50;15.00;46.10
47845;DHT22;33605;48.822;8.796;2023-10-08T02:39:16;15.00;46.20
47845;DHT22;33605;48.822;8.796;2023-10-08T02:41:47;15.00;46.20
47845;DHT22;33605;48.822;8.796;2023-10-08T02:44:14;15.00;46.10
47845;DHT22;33605;48.822;8.796;2023-10-08T02:46:41;15.00;46.10
47845;DHT22;33605;48.822;8.796;2023-10-08T02:49:08;14.90;46.10
47845;DHT22;33605;48.822;8.796;2023-10-08T02:51:38;15.00;46.20
47845;DHT22;33605;48.822;8.796;2023-10-08T02:54:04;14.90;46.20
47845;DHT22;33605;48.822;8.796;2023-10-08T02:56:32;14.90;46.30
47845;DHT22;33605;48.822;8.796;2023-10-08T02:58:59;14.90;46.30
47845;DHT22;33605;48.822;8.796;2023-10-08T03:01:26;14.90;46.40
47845;DHT22;33605;48.822;8.796;2023-10-08T03:03:52;14.90;46.50
47845;DHT22;33605;48.822;8.796;2023-10-08T03:06:28;14.80;46.40
47845;DHT22;33605;48.822;8.796;2023-10-08T03:08:57;14.90;46.50
47845;DHT22;33605;48.822;8.796;2023-10-08T03:11:29;14.80;46.40
47845;DHT22;33605;48.822;8.796;2023-10-08T03:13:56;14.80;46.50
47845;DHT22;33605;48.822;8.796;2023-10-08T03:16:22;14.70;46.40
47845;DHT22;33605;48.822;8.796;2023-10-08T03:18:53;14.70;46.50
47845;DHT22;33605;48.822;8.796;2023-10-08T03:21:22;14.70;46.40
47845;DHT22;33605;48.822;8.796;2023-10-08T03:24:08;14.70;46.40
47845;DHT22;33605;48.822;8.796;2023-10-08T03:27:05;14.70;46.40
47845;DHT22;33605;48.822;8.796;2023-10-08T03:29:46;14.60;46.30
47845;DHT22;33605;48.822;8.796;2023-10-08T03:32:14;14.60;46.30
47845;DHT22;33605;48.822;8.796;2023-10-08T03:34:47;14.60;46.40
47845;DHT22;33605;48.822;8.796;2023-10-08T03:37:18;14.60;46.50
47845;DHT22;33605;48.822;8.796;2023-10-08T03:39:48;14.60;46.50
47845;DHT22;33605;48.822;8.796;2023-10-08T03:42:24;14.60;46.50
47845;DHT22;33605;48.822;8.796;2023-10-08T03:44:51;14.60;46.50
47845;DHT22;33605;48.822;8.796;2023-10-08T03:47:24;14.60;46.50
47845;DHT22;33605;48.822;8.796;2023-10-08T03:49:54;14.60;46.50
47845;DHT22;33605;48.822;8.796;2023-10-08T03:52:20;14.60;46.50
47845;DHT22;33605;48.822;8.796;2023-10-08T03:54:51;14.60;46.60
47845;DHT22;33605;48.822;8.796;2023-10-08T03:57:35;14.60;46.60
47845;DHT22;33605;48.822;8.796;2023-10-08T04:00:11;14.60;46.50
47845;DHT22;33605;48.822;8.796;2023-10-08T04:02:47;14.60;46.60
47845;DHT22;33605;48.822;8.796;2023-10-08T04:05:20;14.60;46.60
47845;DHT22;33605;48.822;8.796;2023-10-08T04:07:48;14.60;46.70
47845;DHT22;33605;48.822;8.796;2023-10-08T04:10:52;14.60;46.70
47845;DHT22;33605;48.822;8.796;2023-10-08T04:13:34;14.60;46.70
47845;DHT22;33605;48.822;8.796;2023-10-08T04:16:04;14.60;46.80
47845;DHT22;33605;48.822;8.796;2023-10-08T04:18:31;14.60;46.80
47845;DHT22;33605;48.822;8.796;2023-10-08T04:20:58;14.50;46.70
47845;DHT22;33605;48.822;8.796;2023-10-08T04:23:30;14.50;46.70
47845;DHT22;33605;48.822;8.796;2023-10-08T04:25:56;14.50;46.80
47845;DHT22;33605;48.822;8.796;2023-10-08T04:28:23;14.50;46.80
47845;DHT22;33605;48.822;8.796;2023-10-08T04:30:54;14.50;46.90
47845;DHT22;33605;48.822;8.796;2023-10-08T04:33:27;14.50;47.00
47845;DHT22;33605;48.822;8.796;2023-10-08T04:35:55;14.40;46.90
47845;DHT22;33605;48.822;8.796;2023-10-08T04:38:23;14.40;47.00
47845;DHT22;33605;48.822;8.796;2023-10-08T04:40:54;14.50;47.20
47845;DHT22;33605;48.822;8.796;2023-10-08T04:43:22;14.40;47.30
47845;DHT22;33605;48.822;8.796;2023-10-08T04:45:56;14.40;47.40
47845;DHT22;33605;48.822;8.796;2023-10-08T04:48:23;14.40;47.50
47845;DHT22;33605;48.822;8.796;2023-10-08T04:50:51;14.40;47.50
47845;DHT22;33605;48.822;8.796;2023-10-08T04:53:33;14.40;47.40
47845;DHT22;33605;48.822;8.796;2023-10-08T04:56:04;14.40;47.40
47845;DHT22;33605;48.822;8.796;2023-10-08T04:58:43;14.40;47.20
47845;DHT22;33605;48.822;8.796;2023-10-08T05:01:13;14.40;47.20
47845;DHT22;33605;48.822;8.796;2023-10-08T05:04:15;14.40;47.20
47845;DHT22;33605;48.822;8.796;2023-10-08T05:06:52;14.50;47.30
47845;DHT22;33605;48.822;8.796;2023-10-08T05:09:26;14.40;47.10
47845;DHT22;33605;48.822;8.796;2023-10-08T05:12:06;14.40;47.00
47845;DHT22;33605;48.822;8.796;2023-10-08T05:14:50;14.40;47.00
47845;DHT22;33605;48.822;8.796;2023-10-08T05:17:46;14.50;47.10
47845;DHT22;33605;48.822;8.796;2023-10-08T05:20:19;14.40;47.00
47845;DHT22;33605;48.822;8.796;2023-10-08T05:23:12;14.30;46.90
47845;DHT22;33605;48.822;8.796;2023-10-08T05:25:54;14.30;46.90
47845;DHT22;33605;48.822;8.796;2023-10-08T05:28:32;14.40;47.00
47845;DHT22;33605;48.822;8.796;2023-10-08T05:31:08;14.30;46.90
47845;DHT22;33605;48.822;8.796;2023-10-08T05:33:57;14.30;47.70
47845;DHT22;33605;48.822;8.796;2023-10-08T05:36:44;14.40;47.00
47845;DHT22;33605;48.822;8.796;2023-10-08T05:39:19;14.30;46.90
47845;DHT22;33605;48.822;8.796;2023-10-08T05:42:03;14.40;47.00
47845;DHT22;33605;48.822;8.796;2023-10-08T05:44:57;14.40;47.00
47845;DHT22;33605;48.822;8.796;2023-10-08T05:47:52;14.40;47.00
47845;DHT22;33605;48.822;8.796;2023-10-08T05:50:33;14.30;46.90
47845;DHT22;33605;48.822;8.796;2023-10-08T05:53:04;14.40;47.00
47845;DHT22;33605;48.822;8.796;2023-10-08T05:55:40;14.40;47.10
47845;DHT22;33605;48.822;8.796;2023-10-08T05:58:35;14.40;47.70
47845;DHT22;33605;48.822;8.796;2023-10-08T06:01:11;14.40;47.10
47845;DHT22;33605;48.822;8.796;2023-10-08T06:03:54;14.40;47.20
47845;DHT22;33605;48.822;8.796;2023-10-08T06:06:28;14.40;47.10
47845;DHT22;33605;48.822;8.796;2023-10-08T06:09:08;14.40;47.10
47845;DHT22;33605;48.822;8.796;2023-10-08T06:11:35;14.40;47.10
47845;DHT22;33605;48.822;8.796;2023-10-08T06:14:21;14.40;47.10
47845;DHT22;33605;48.822;8.796;2023-10-08T06:17:18;14.50;47.20
47845;DHT22;33605;48.822;8.796;2023-10-08T06:20:11;14.50;47.20
47845;DHT22;33605;48.822;8.796;2023-10-08T06:22:42;14.50;47.10
47845;DHT22;33605;48.822;8.796;2023-10-08T06:25:09;14.50;47.10
47845;DHT22;33605;48.822;8.796;2023-10-08T06:27:49;14.60;47.20
47845;DHT22;33605;48.822;8.796;2023-10-08T06:30:19;14.60;47.20
47845;DHT22;33605;48.822;8.796;2023-10-08T06:32:45;14.70;47.30
47845;DHT22;33605;48.822;8.796;2023-10-08T06:35:11;14.70;47.30
47845;DHT22;33605;48.822;8.796;2023-10-08T06:37:45;14.70;47.30
47845;DHT22;33605;48.822;8.796;2023-10-08T06:40:11;14.70;47.30
47845;DHT22;33605;48.822;8.796;2023-10-08T06:42:56;14.80;47.30
47845;DHT22;33605;48.822;8.796;2023-10-08T06:45:22;14.90;47.40
47845;DHT22;33605;48.822;8.796;2023-10-08T06:47:48;14.90;47.30
47845;DHT22;33605;48.822;8.796;2023-10-08T21:48:00;23.80;39.70
47845;DHT22;33605;48.822;8.796;2023-10-08T21:50:26;18.60;40.30
47845;DHT22;33605;48.822;8.796;2023-10-08T21:52:52;18.20;40.50
47845;DHT22;33605;48.822;8.796;2023-10-08T21:55:18;18.10;40.50
47845;DHT22;33605;48.822;8.796;2023-10-08T21:57:45;18.10;40.60
47845;DHT22;33605;48.822;8.796;2023-10-08T22:00:12;18.00;40.60
47845;DHT22;33605;48.822;8.796;2023-10-08T22:02:48;18.00;40.70
47845;DHT22;33605;48.822;8.796;2023-10-08T22:05:15;17.90;40.70
47845;DHT22;33605;48.822;8.796;2023-10-08T22:07:41;17.90;40.80
47845;DHT22;33605;48.822;8.796;2023-10-08T22:10:07;17.80;40.80
47845;DHT22;33605;48.822;8.796;2023-10-08T22:12:40;17.80;40.90
47845;DHT22;33605;48.822;8.796;2023-10-08T22:15:08;17.80;41.10
47845;DHT22;33605;48.822;8.796;2023-10-08T22:17:42;17.70;41.00
47845;DHT22;33605;48.822;8.796;2023-10-08T22:20:15;17.70;41.10
47845;DHT22;33605;48.822;8.796;2023-10-08T22:23:05;17.60;41.20
47845;DHT22;33605;48.822;8.796;2023-10-08T22:25:32;17.60;41.20
47845;DHT22;33605;48.822;8.796;2023-10-08T22:28:03;17.60;41.20
47845;DHT22;33605;48.822;8.796;2023-10-08T22:30:42;17.50;41.20
47845;DHT22;33605;48.822;8.796;2023-10-08T22:33:08;17.50;41.40
47845;DHT22;33605;48.822;8.796;2023-10-08T22:35:35;17.50;41.50
47845;DHT22;33605;48.822;8.796;2023-10-08T22:38:08;17.50;41.50
47845;DHT22;33605;48.822;8.796;2023-10-08T22:43:25;17.40;41.50
47845;DHT22;33605;48.822;8.796;2023-10-08T22:46:01;17.30;41.60
47845;DHT22;33605;48.822;8.796;2023-10-08T22:48:28;17.30;41.60
47845;DHT22;33605;48.822;8.796;2023-10-08T22:51:12;17.30;41.70
47845;DHT22;33605;48.822;8.796;2023-10-08T23:13:21;17.30;41.90
47845;DHT22;33605;48.822;8.796;2023-10-08T23:15:48;17.00;42.50
47845;DHT22;33605;48.822;8.796;2023-10-08T23:18:19;16.90;43.00
47845;DHT22;33605;48.822;8.796;2023-10-08T23:20:51;16.90;42.40
47845;DHT22;33605;48.822;8.796;2023-10-08T23:23:17;16.90;42.50
47845;DHT22;33605;48.822;8.796;2023-10-08T23:25:46;16.80;42.40
47845;DHT22;33605;48.822;8.796;2023-10-08T23:28:12;16.80;42.50
47845;DHT22;33605;48.822;8.796;2023-10-08T23:30:38;16.70;42.50
47845;DHT22;33605;48.822;8.796;2023-10-08T23:33:04;16.70;42.60
47845;DHT22;33605;48.822;8.796;2023-10-08T23:35:32;16.70;42.60
47845;DHT22;33605;48.822;8.796;2023-10-08T23:37:58;16.70;42.70
47845;DHT22;33605;48.822;8.796;2023-10-08T23:40:33;16.70;42.80
47845;DHT22;33605;48.822;8.796;2023-10-08T23:43:00;16.60;42.80
47845;DHT22;33605;48.822;8.796;2023-10-08T23:45:26;16.60;42.90
47845;DHT22;33605;48.822;8.796;2023-10-08T23:47:57;16.60;42.90
47845;DHT22;33605;48.822;8.796;2023-10-08T23:50:43;16.60;43.10
47845;DHT22;33605;48.822;8.796;2023-10-08T23:53:09;16.60;43.20
47845;DHT22;33605;48.822;8.796;2023-10-08T23:55:47;16.50;43.20
47845;DHT22;33605;48.822;8.796;2023-10-08T23:58:33;16.50;43.20
